Time;durP1;ratioP1;P1;durP2;ratioP2;P2;SDS_P1;SDS_P2;PMS_P1;PMS_P2;Temp;Humidity;BMP_temperature;BMP_pressure;BME280_temperature;BME280_humidity;BME280_pressure;Samples;Min_cycle;Max_cycle;Signal;HPM_P1;HPM_P2
2023/07/21 00:02:19;;;;;;;11.35;10.55;;;14.80;59.10;;;;;;5102061;28;20047;-75
2023/07/21 00:04:45;;;;;;;11.50;10.60;;;15.00;55.90;;;;;;5103578;28;20023;-76
2023/07/21 00:07:11;;;;;;;11.45;10.45;;;15.20;54.90;;;;;;5098056;27;20397;-76
2023/07/21 00:09:36;;;;;;;11.18;10.35;;;15.40;54.00;;;;;;5103095;28;20472;-76
2023/07/21 00:12:03;;;;;;;11.43;10.70;;;15.40;53.90;;;;;;5107451;28;20389;-76
2023/07/21 00:14:29;;;;;;;11.18;10.50;;;15.40;53.70;;;;;;5104002;28;20028;-76
2023/07/21 00:16:55;;;;;;;12.05;11.15;;;15.40;53.90;;;;;;5105845;28;20062;-76
2023/07/21 00:19:21;;;;;;;11.10;10.40;;;15.40;53.20;;;;;;5105769;28;20446;-76
2023/07/21 00:21:46;;;;;;;12.27;11.27;;;15.40;53.00;;;;;;5101047;28;20044;-76
2023/07/21 00:24:13;;;;;;;12.00;11.00;;;15.50;53.40;;;;;;5121259;28;20441;-76
2023/07/21 00:26:39;;;;;;;19.50;11.50;;;15.40;54.20;;;;;;5104229;28;20366;-76
2023/07/21 00:29:04;;;;;;;11.73;10.70;;;15.30;54.00;;;;;;5103719;28;20080;-75
2023/07/21 00:31:31;;;;;;;11.50;10.85;;;15.20;55.00;;;;;;5103981;28;20114;-76
2023/07/21 00:33:57;;;;;;;11.63;10.93;;;15.20;54.50;;;;;;5101745;28;20049;-76
2023/07/21 00:36:23;;;;;;;10.70;10.10;;;15.10;54.70;;;;;;5104878;28;20028;-75
2023/07/21 00:38:50;;;;;;;12.45;11.55;;;15.10;54.80;;;;;;5071048;28;20031;-75
2023/07/21 00:41:17;;;;;;;11.25;10.55;;;15.10;54.60;;;;;;5086143;28;20077;-76
2023/07/21 00:43:43;;;;;;;11.32;10.63;;;15.10;54.30;;;;;;5100176;28;20115;-76
2023/07/21 00:46:10;;;;;;;11.80;11.10;;;15.10;56.50;;;;;;5099195;28;20608;-76
2023/07/21 00:48:37;;;;;;;11.70;11.00;;;14.90;60.20;;;;;;5102065;28;20055;-75
2023/07/21 00:51:03;;;;;;;11.50;10.68;;;14.70;60.40;;;;;;5105610;28;20106;-76
2023/07/21 00:53:29;;;;;;;11.20;10.60;;;14.60;60.00;;;;;;5104655;28;20481;-76
2023/07/21 00:55:55;;;;;;;12.50;10.23;;;14.70;57.60;;;;;;5103899;28;20092;-76
2023/07/21 00:58:22;;;;;;;11.85;10.88;;;14.80;57.30;;;;;;5103287;28;20028;-76
2023/07/21 01:00:48;;;;;;;11.43;10.68;;;14.90;56.00;;;;;;5100171;28;20043;-76
2023/07/21 01:03:16;;;;;;;11.63;10.73;;;15.00;55.90;;;;;;5103830;28;20524;-76
2023/07/21 01:05:49;;;;;;;11.40;10.50;;;14.90;55.70;;;;;;5106562;28;20031;-75
2023/07/21 01:08:16;;;;;;;11.60;10.65;;;15.00;56.30;;;;;;5104106;28;20115;-76
2023/07/21 01:10:43;;;;;;;12.02;11.15;;;15.00;56.70;;;;;;5100420;28;20036;-76
2023/07/21 01:13:11;;;;;;;11.70;10.77;;;15.00;56.10;;;;;;5101536;28;20521;-75
2023/07/21 01:15:40;;;;;;;11.18;10.38;;;15.10;55.50;;;;;;5101046;28;20036;-75
2023/07/21 01:18:07;;;;;;;11.32;10.52;;;15.10;55.50;;;;;;5099897;28;20508;-75
2023/07/21 01:20:33;;;;;;;10.85;10.25;;;15.20;55.50;;;;;;5085129;28;20031;-76
2023/07/21 01:23:10;;;;;;;12.23;10.95;;;15.20;55.40;;;;;;5095349;28;20032;-76
2023/07/21 01:25:38;;;;;;;11.95;10.95;;;15.30;56.00;;;;;;5104041;28;20435;-75
2023/07/21 01:28:07;;;;;;;11.27;10.48;;;15.40;55.30;;;;;;5109950;28;20016;-75
2023/07/21 01:30:34;;;;;;;19.77;11.02;;;15.40;55.00;;;;;;5092830;28;20053;-75
2023/07/21 01:33:01;;;;;;;11.25;10.52;;;15.40;54.80;;;;;;5112444;28;20061;-75
2023/07/21 01:35:30;;;;;;;11.30;10.50;;;15.40;54.50;;;;;;5112731;28;20035;-75
2023/07/21 01:37:57;;;;;;;11.52;10.82;;;15.40;54.80;;;;;;5111848;28;20134;-76
2023/07/21 01:40:25;;;;;;;11.90;10.95;;;15.30;56.20;;;;;;5110002;28;20032;-75
2023/07/21 01:42:51;;;;;;;11.77;11.07;;;15.20;57.60;;;;;;5109940;28;20373;-76
2023/07/21 01:45:17;;;;;;;11.32;10.45;;;15.10;57.90;;;;;;5093260;28;20039;-75
2023/07/21 01:47:45;;;;;;;11.85;10.75;;;15.00;56.40;;;;;;5104524;28;20046;-76
2023/07/21 01:50:13;;;;;;;12.27;11.45;;;15.00;58.50;;;;;;5105002;28;20031;-75
2023/07/21 01:52:41;;;;;;;12.27;11.45;;;15.00;59.80;;;;;;5106289;28;20031;-75
2023/07/21 01:55:16;;;;;;;11.77;11.07;;;14.90;60.70;;;;;;5099388;28;20092;-75
2023/07/21 01:57:47;;;;;;;12.35;11.45;;;14.90;59.50;;;;;;5088848;28;20481;-75
2023/07/21 02:00:14;;;;;;;12.82;12.13;;;14.90;61.10;;;;;;5102802;28;20028;-75
2023/07/21 02:02:42;;;;;;;13.43;12.55;;;14.70;62.70;;;;;;5102650;28;20055;-76
2023/07/21 02:05:18;;;;;;;13.48;12.25;;;14.80;64.60;;;;;;5103463;28;20688;-76
2023/07/21 02:07:44;;;;;;;13.43;12.65;;;14.90;63.30;;;;;;5104056;28;20035;-76
2023/07/21 02:10:11;;;;;;;12.40;11.70;;;14.90;63.80;;;;;;5101954;28;20509;-75
2023/07/21 02:12:38;;;;;;;11.50;10.80;;;15.00;62.30;;;;;;5085946;28;20476;-76
2023/07/21 02:15:05;;;;;;;11.60;10.90;;;15.00;60.40;;;;;;5101501;28;20110;-75
2023/07/21 02:17:32;;;;;;;11.55;10.73;;;15.00;59.00;;;;;;5104481;28;20016;-76
2023/07/21 02:19:57;;;;;;;12.55;11.65;;;15.00;59.40;;;;;;5085257;28;20028;-76
2023/07/21 02:22:23;;;;;;;12.48;11.68;;;14.90;61.20;;;;;;5105722;28;20031;-75
2023/07/21 02:24:49;;;;;;;13.32;12.57;;;14.80;62.00;;;;;;5107423;28;20076;-75
2023/07/21 02:27:14;;;;;;;13.43;12.70;;;14.80;64.30;;;;;;5106128;28;20028;-76
2023/07/21 02:29:40;;;;;;;14.02;13.13;;;14.60;68.00;;;;;;5107386;28;20032;-75
2023/07/21 02:32:06;;;;;;;13.75;12.68;;;14.50;69.50;;;;;;5098677;28;20036;-75
2023/07/21 02:34:32;;;;;;;13.20;12.40;;;14.50;69.00;;;;;;5105937;28;20031;-76
2023/07/21 02:36:57;;;;;;;13.25;12.45;;;14.40;65.50;;;;;;5105056;28;20048;-76
2023/07/21 02:39:25;;;;;;;13.35;12.57;;;14.50;67.10;;;;;;5089891;28;20024;-76
2023/07/21 02:41:51;;;;;;;13.27;12.45;;;14.60;66.90;;;;;;5105902;28;20161;-75
2023/07/21 02:44:17;;;;;;;13.23;12.23;;;14.90;64.60;;;;;;5103068;28;20118;-76
2023/07/21 02:46:42;;;;;;;12.57;11.88;;;15.00;64.00;;;;;;5106494;28;20120;-76
2023/07/21 02:49:08;;;;;;;12.55;11.77;;;15.00;65.00;;;;;;5085714;28;20039;-76
2023/07/21 02:51:33;;;;;;;12.75;12.05;;;14.90;62.20;;;;;;5103404;28;20455;-75
2023/07/21 02:53:59;;;;;;;12.85;11.98;;;14.90;64.50;;;;;;5088506;28;20040;-76
2023/07/21 02:56:25;;;;;;;12.95;12.15;;;14.90;64.70;;;;;;5107985;28;20032;-76
2023/07/21 02:58:50;;;;;;;14.32;13.32;;;14.90;64.20;;;;;;5106196;28;20032;-76
2023/07/21 03:01:18;;;;;;;13.60;12.73;;;14.70;67.50;;;;;;5084976;28;20513;-75
2023/07/21 03:03:44;;;;;;;13.15;12.35;;;14.60;68.80;;;;;;5103918;27;20024;-76
2023/07/21 03:06:10;;;;;;;13.05;12.35;;;14.70;70.00;;;;;;5105328;28;20037;-76
2023/07/21 03:08:35;;;;;;;14.02;13.20;;;14.80;67.10;;;;;;5102226;28;20390;-76
2023/07/21 03:11:01;;;;;;;13.57;12.77;;;14.70;68.70;;;;;;5105266;28;20221;-76
2023/07/21 03:13:27;;;;;;;12.85;11.95;;;14.60;69.80;;;;;;5086676;28;20039;-76
2023/07/21 03:15:53;;;;;;;13.27;12.48;;;14.70;68.40;;;;;;5098944;28;20040;-76
2023/07/21 03:18:18;;;;;;;13.00;12.18;;;14.70;67.00;;;;;;5106628;28;20038;-76
2023/07/21 03:20:44;;;;;;;13.18;12.45;;;14.60;68.30;;;;;;5086278;28;20032;-76
2023/07/21 03:23:11;;;;;;;13.85;12.95;;;14.60;68.40;;;;;;5105171;28;20028;-76
2023/07/21 03:25:46;;;;;;;13.10;12.20;;;14.40;71.10;;;;;;5107162;28;20145;-76
2023/07/21 03:28:11;;;;;;;12.68;11.98;;;14.60;71.60;;;;;;5103795;28;20035;-75
2023/07/21 03:30:37;;;;;;;13.45;12.65;;;14.60;69.80;;;;;;5105323;28;20023;-76
2023/07/21 03:33:03;;;;;;;12.80;12.02;;;14.60;72.50;;;;;;5086455;28;20024;-76
2023/07/21 03:35:28;;;;;;;12.25;11.52;;;14.50;71.00;;;;;;5087015;28;20507;-75
2023/07/21 03:37:56;;;;;;;12.30;11.60;;;14.50;68.80;;;;;;5106773;28;20040;-76
2023/07/21 03:40:22;;;;;;;12.52;11.48;;;14.40;68.00;;;;;;5105845;28;20027;-75
2023/07/21 03:42:47;;;;;;;12.60;11.68;;;14.30;67.50;;;;;;5109006;27;20028;-76
2023/07/21 03:45:13;;;;;;;11.68;10.98;;;14.40;67.30;;;;;;5104220;28;20032;-76
2023/07/21 03:47:38;;;;;;;12.75;11.77;;;14.50;68.60;;;;;;5071755;28;20039;-75
2023/07/21 03:50:05;;;;;;;12.32;11.60;;;14.40;70.40;;;;;;5110556;27;20036;-75
2023/07/21 03:52:30;;;;;;;12.00;11.30;;;14.40;68.00;;;;;;5102857;28;20028;-76
2023/07/21 03:54:56;;;;;;;11.88;11.13;;;14.30;68.20;;;;;;5086006;28;20043;-75
2023/07/21 03:57:22;;;;;;;12.20;11.07;;;14.30;67.60;;;;;;5106052;28;20028;-75
2023/07/21 03:59:48;;;;;;;12.18;11.27;;;14.30;66.60;;;;;;5107625;27;20056;-75
2023/07/21 04:02:16;;;;;;;12.63;11.82;;;14.40;65.50;;;;;;5106302;28;20125;-75
2023/07/21 04:04:46;;;;;;;12.65;11.82;;;14.10;68.70;;;;;;5104868;27;20032;-75
2023/07/21 04:07:12;;;;;;;12.20;11.32;;;14.20;68.70;;;;;;5087052;28;20035;-75
2023/07/21 04:09:38;;;;;;;12.43;11.63;;;14.30;68.30;;;;;;5105000;28;20031;-72
2023/07/21 04:12:05;;;;;;;12.18;11.48;;;14.40;66.50;;;;;;5103086;28;20031;-72
2023/07/21 04:14:31;;;;;;;12.38;11.57;;;14.40;66.70;;;;;;5104180;28;20114;-72
2023/07/21 04:16:56;;;;;;;11.68;10.98;;;14.50;66.60;;;;;;5103614;28;20157;-72
2023/07/21 04:19:25;;;;;;;11.98;11.20;;;14.60;65.40;;;;;;5104706;28;20131;-72
2023/07/21 04:21:52;;;;;;;12.30;11.43;;;14.60;66.00;;;;;;5105478;28;20031;-71
2023/07/21 04:24:18;;;;;;;11.90;11.00;;;14.70;67.80;;;;;;5104784;28;20477;-71
2023/07/21 04:26:43;;;;;;;12.10;11.27;;;14.70;69.30;;;;;;5103412;28;20039;-71
2023/07/21 04:29:09;;;;;;;11.93;11.05;;;14.80;68.70;;;;;;5106210;28;20066;-71
2023/07/21 04:31:35;;;;;;;12.27;11.48;;;14.80;67.90;;;;;;5108436;27;20502;-71
2023/07/21 04:34:00;;;;;;;12.35;11.55;;;14.80;66.60;;;;;;5104445;28;20047;-72
2023/07/21 04:36:27;;;;;;;12.27;11.43;;;14.80;67.50;;;;;;5103334;28;20031;-72
2023/07/21 04:38:53;;;;;;;11.90;11.23;;;14.90;68.10;;;;;;5102444;28;20557;-72
2023/07/21 04:41:19;;;;;;;12.52;11.82;;;15.00;68.20;;;;;;5105210;27;20154;-74
2023/07/21 04:43:45;;;;;;;13.15;12.07;;;15.00;68.10;;;;;;5104188;28;20119;-71
2023/07/21 04:46:12;;;;;;;14.02;13.13;;;15.10;68.30;;;;;;5105715;28;20028;-71
2023/07/21 04:48:38;;;;;;;13.30;12.50;;;15.00;71.50;;;;;;5102970;28;20039;-71
2023/07/21 04:51:03;;;;;;;14.35;13.57;;;15.20;71.90;;;;;;5104780;28;20066;-72
2023/07/21 04:53:30;;;;;;;14.90;14.10;;;15.20;72.80;;;;;;5107358;28;20106;-72
2023/07/21 04:55:57;;;;;;;15.77;14.68;;;15.20;71.30;;;;;;5102258;28;20483;-71
2023/07/21 04:58:22;;;;;;;14.65;13.80;;;15.10;71.50;;;;;;5107465;28;20032;-72
2023/07/21 05:00:48;;;;;;;15.32;14.05;;;15.00;72.40;;;;;;5107254;28;20418;-72
2023/07/21 05:03:14;;;;;;;14.13;13.13;;;15.10;71.90;;;;;;5082555;28;20086;-71
2023/07/21 05:05:39;;;;;;;14.77;13.93;;;15.10;71.20;;;;;;5103117;28;20063;-71
2023/07/21 05:08:05;;;;;;;15.38;14.57;;;15.00;72.00;;;;;;5084950;28;20409;-71
2023/07/21 05:10:31;;;;;;;14.60;13.75;;;15.10;71.90;;;;;;5106028;28;20043;-71
2023/07/21 05:12:57;;;;;;;14.63;13.73;;;15.30;71.10;;;;;;5106168;28;20067;-71
2023/07/21 05:15:24;;;;;;;14.80;13.90;;;15.50;69.40;;;;;;5104002;28;20042;-74
2023/07/21 05:17:50;;;;;;;14.95;14.13;;;15.40;69.70;;;;;;5106498;28;20412;-74
2023/07/21 05:20:16;;;;;;;14.70;13.32;;;15.80;69.60;;;;;;5101218;28;20046;-75
2023/07/21 05:22:41;;;;;;;13.10;12.30;;;16.10;67.00;;;;;;5103082;28;20089;-74
2023/07/21 05:25:11;;;;;;;13.23;12.40;;;16.10;66.90;;;;;;5102117;28;20040;-73
2023/07/21 05:27:37;;;;;;;14.75;13.95;;;16.20;64.90;;;;;;5098107;28;20044;-74
2023/07/21 05:30:03;;;;;;;14.48;13.48;;;16.20;67.80;;;;;;5105080;28;20075;-77
2023/07/21 05:32:29;;;;;;;13.50;12.48;;;16.30;67.90;;;;;;5083095;28;20046;-73
2023/07/21 05:34:55;;;;;;;13.98;13.25;;;16.30;64.80;;;;;;5102693;28;20032;-73
2023/07/21 05:37:20;;;;;;;13.25;12.20;;;16.20;67.60;;;;;;5083959;28;20138;-73
2023/07/21 05:39:46;;;;;;;13.00;12.20;;;16.30;64.60;;;;;;5087078;28;20471;-74
2023/07/21 05:42:11;;;;;;;13.98;12.85;;;16.30;64.60;;;;;;5104333;28;20508;-73
2023/07/21 05:44:38;;;;;;;13.20;12.40;;;16.50;64.30;;;;;;5101206;28;20402;-73
2023/07/21 05:47:04;;;;;;;12.85;12.05;;;16.70;63.80;;;;;;5068718;28;20026;-73
2023/07/21 05:49:30;;;;;;;13.88;12.95;;;16.80;63.80;;;;;;5099993;28;20023;-74
2023/07/21 05:51:56;;;;;;;14.75;13.95;;;17.10;62.90;;;;;;5102703;28;20059;-74
2023/07/21 05:54:21;;;;;;;15.60;14.50;;;17.00;65.20;;;;;;5103599;28;20102;-74
2023/07/21 05:56:47;;;;;;;14.07;13.05;;;17.00;65.80;;;;;;5102793;28;20062;-75
2023/07/21 05:59:12;;;;;;;13.77;12.98;;;17.10;63.00;;;;;;5102741;28;20509;-74
2023/07/21 06:01:38;;;;;;;12.80;12.05;;;17.30;59.40;;;;;;5106201;28;20028;-75
2023/07/21 06:04:05;;;;;;;13.05;12.27;;;17.40;56.10;;;;;;5090717;28;20490;-75
2023/07/21 06:06:31;;;;;;;12.40;11.57;;;17.40;57.80;;;;;;5105786;28;20070;-75
2023/07/21 06:08:58;;;;;;;12.80;11.93;;;17.30;56.10;;;;;;5092857;28;20035;-74
2023/07/21 06:11:26;;;;;;;13.15;12.02;;;17.40;54.40;;;;;;5109291;28;20071;-75
2023/07/21 06:13:52;;;;;;;12.95;12.00;;;17.50;55.80;;;;;;5113643;28;20492;-73
2023/07/21 06:16:17;;;;;;;13.35;12.20;;;17.60;55.40;;;;;;5107098;28;20115;-74
2023/07/21 06:18:43;;;;;;;14.15;13.18;;;17.70;54.60;;;;;;5093680;28;20055;-74
2023/07/21 06:21:12;;;;;;;13.35;12.32;;;17.70;53.20;;;;;;5111602;28;20056;-74
2023/07/21 06:23:38;;;;;;;13.88;12.65;;;17.90;56.50;;;;;;5111360;27;20028;-74
2023/07/21 06:26:04;;;;;;;12.95;12.15;;;18.00;57.10;;;;;;5090298;28;20035;-75
2023/07/21 06:28:30;;;;;;;13.70;12.63;;;18.20;54.80;;;;;;5090054;28;20035;-75
2023/07/21 06:30:56;;;;;;;13.27;12.38;;;18.30;53.70;;;;;;5107341;28;20513;-74
2023/07/21 06:33:22;;;;;;;13.07;12.20;;;18.30;55.10;;;;;;5106419;28;20039;-75
2023/07/21 06:35:49;;;;;;;13.23;12.10;;;18.50;54.20;;;;;;5108683;28;20031;-75
2023/07/21 06:38:14;;;;;;;13.52;12.45;;;18.60;54.50;;;;;;5091930;28;20043;-74
2023/07/21 06:40:40;;;;;;;13.02;12.18;;;18.70;55.20;;;;;;5107791;28;20088;-75
2023/07/21 06:43:05;;;;;;;13.88;12.93;;;18.80;52.30;;;;;;5106055;28;20063;-75
2023/07/21 06:45:33;;;;;;;13.15;12.35;;;18.90;51.00;;;;;;5092517;28;20040;-74
2023/07/21 06:47:59;;;;;;;14.27;13.07;;;19.00;51.80;;;;;;5091367;28;20028;-75
2023/07/21 06:50:24;;;;;;;13.73;12.68;;;19.20;52.60;;;;;;5107593;28;20504;-74
2023/07/21 06:52:50;;;;;;;14.35;13.35;;;19.40;53.80;;;;;;5105324;28;20097;-75
2023/07/21 06:55:16;;;;;;;13.88;12.90;;;19.70;53.40;;;;;;5105220;28;20516;-75
2023/07/21 06:57:41;;;;;;;13.15;12.35;;;20.00;49.30;;;;;;5106781;28;20152;-73
2023/07/21 07:00:08;;;;;;;17.13;13.27;;;20.10;54.30;;;;;;5106669;28;20020;-73
2023/07/21 07:02:34;;;;;;;13.95;12.85;;;20.10;48.80;;;;;;5110120;28;20054;-73
2023/07/21 07:04:59;;;;;;;13.48;12.60;;;20.30;49.00;;;;;;5109548;28;20023;-73
2023/07/21 07:07:27;;;;;;;14.57;13.68;;;20.50;46.90;;;;;;5105125;28;20059;-73
2023/07/21 07:09:52;;;;;;;15.73;14.50;;;20.60;48.20;;;;;;5103615;28;20085;-73
2023/07/21 07:12:18;;;;;;;14.77;13.93;;;20.60;42.70;;;;;;5107792;28;20130;-73
2023/07/21 07:14:46;;;;;;;14.73;13.82;;;20.60;43.70;;;;;;5107259;28;20134;-73
2023/07/21 07:17:12;;;;;;;14.27;13.35;;;20.80;43.50;;;;;;5110829;27;20024;-72
2023/07/21 07:19:39;;;;;;;14.88;13.90;;;20.70;43.20;;;;;;5106055;28;20023;-72
2023/07/21 07:22:08;;;;;;;14.25;13.45;;;20.70;42.60;;;;;;5122389;28;20020;-73
2023/07/21 07:24:34;;;;;;;14.33;13.20;;;21.00;43.60;;;;;;5127423;28;20011;-72
2023/07/21 07:27:00;;;;;;;17.15;16.25;;;21.20;43.00;;;;;;5124521;28;20084;-72
2023/07/21 07:29:27;;;;;;;15.68;14.57;;;21.00;41.40;;;;;;5123798;28;20019;-72
2023/07/21 07:31:52;;;;;;;16.75;15.65;;;20.80;45.10;;;;;;5122614;28;20457;-72
2023/07/21 07:34:18;;;;;;;27.40;25.58;;;21.00;44.60;;;;;;5116124;28;20038;-73
2023/07/21 07:36:44;;;;;;;18.35;17.15;;;20.90;39.70;;;;;;5106912;28;20729;-73
2023/07/21 07:39:11;;;;;;;20.00;19.00;;;20.70;44.10;;;;;;5107342;28;20034;-73
2023/07/21 07:41:38;;;;;;;16.10;15.10;;;20.80;41.80;;;;;;5107256;28;20019;-72
2023/07/21 07:44:04;;;;;;;17.80;16.85;;;20.80;44.70;;;;;;5105622;28;20042;-75
2023/07/21 07:46:30;;;;;;;24.88;23.58;;;20.90;44.00;;;;;;5089735;28;20028;-73
2023/07/21 07:48:55;;;;;;;24.95;23.85;;;21.10;39.40;;;;;;5089509;28;20036;-73
2023/07/21 07:51:21;;;;;;;32.80;31.27;;;21.20;39.50;;;;;;5108150;28;20040;-73
2023/07/21 07:53:47;;;;;;;32.67;31.08;;;21.50;37.80;;;;;;5108735;28;20031;-73
2023/07/21 07:56:17;;;;;;;42.95;40.85;;;21.80;38.00;;;;;;5091335;28;20428;-73
2023/07/21 07:58:42;;;;;;;26.70;24.85;;;21.90;40.90;;;;;;5089373;28;20043;-73
2023/07/21 08:01:08;;;;;;;23.08;21.65;;;21.90;42.40;;;;;;5088445;28;20378;-73
2023/07/21 08:03:34;;;;;;;39.25;37.00;;;21.70;43.50;;;;;;5109697;28;20057;-73
2023/07/21 08:05:59;;;;;;;36.53;34.58;;;21.60;39.40;;;;;;5088925;28;20035;-73
2023/07/21 08:08:26;;;;;;;29.85;28.60;;;21.80;38.80;;;;;;5104660;28;20040;-73
2023/07/21 08:10:52;;;;;;;27.05;25.73;;;21.50;41.30;;;;;;5088417;28;20032;-73
2023/07/21 08:13:17;;;;;;;45.70;43.65;;;21.50;45.40;;;;;;5105432;28;20451;-74
2023/07/21 08:15:45;;;;;;;42.83;41.00;;;21.90;40.10;;;;;;5105745;28;20032;-73
2023/07/21 08:18:11;;;;;;;41.25;39.40;;;22.10;38.40;;;;;;5107725;28;20031;-73
2023/07/21 08:20:38;;;;;;;39.83;38.03;;;22.40;37.90;;;;;;5106181;28;20026;-73
2023/07/21 08:23:04;;;;;;;75.40;72.53;;;22.60;38.60;;;;;;5109171;28;20084;-72
2023/07/21 08:25:30;;;;;;;39.03;37.35;;;22.70;38.60;;;;;;5105620;28;20035;-73
2023/07/21 08:27:59;;;;;;;39.92;38.22;;;22.80;38.60;;;;;;5108860;28;20140;-73
2023/07/21 08:30:25;;;;;;;37.80;36.08;;;22.40;38.70;;;;;;5106579;27;20114;-73
2023/07/21 08:32:51;;;;;;;43.70;41.85;;;22.30;41.50;;;;;;5104747;28;20190;-73
2023/07/21 08:35:17;;;;;;;28.70;27.40;;;22.30;40.60;;;;;;5090533;28;20458;-73
2023/07/21 08:37:43;;;;;;;26.58;25.23;;;22.30;44.10;;;;;;5106678;28;20055;-73
2023/07/21 08:40:09;;;;;;;29.98;28.27;;;22.30;42.00;;;;;;5088618;28;20035;-73
2023/07/21 08:42:36;;;;;;;27.52;25.73;;;22.10;42.80;;;;;;5107915;28;20114;-73
2023/07/21 08:45:04;;;;;;;24.10;22.25;;;22.40;43.90;;;;;;5106229;28;20028;-74
2023/07/21 08:47:31;;;;;;;21.65;19.98;;;22.20;44.10;;;;;;5107144;28;20099;-73
2023/07/21 08:49:57;;;;;;;26.70;24.50;;;22.50;46.20;;;;;;5103944;28;20490;-73
2023/07/21 08:52:25;;;;;;;22.60;18.13;;;22.20;42.70;;;;;;5103494;28;20044;-73
2023/07/21 08:54:51;;;;;;;21.88;20.17;;;22.30;46.50;;;;;;5104095;28;20472;-72
2023/07/21 08:57:18;;;;;;;48.70;45.10;;;22.60;42.80;;;;;;5105942;28;20028;-73
2023/07/21 08:59:44;;;;;;;32.05;29.60;;;22.50;38.60;;;;;;5103899;28;20370;-73
2023/07/21 09:02:10;;;;;;;27.95;26.15;;;22.80;43.80;;;;;;5106175;28;20089;-73
2023/07/21 09:04:36;;;;;;;25.08;23.02;;;23.00;41.10;;;;;;5103893;28;20019;-72
2023/07/21 09:07:03;;;;;;;38.38;36.33;;;23.30;41.10;;;;;;5108227;28;20031;-73
2023/07/21 09:09:31;;;;;;;24.17;22.65;;;23.20;39.50;;;;;;5107899;28;20038;-73
2023/07/21 09:12:15;;;;;;;43.10;40.75;;;23.30;39.70;;;;;;5105545;28;20047;-73
2023/07/21 09:14:43;;;;;;;102.97;98.93;;;23.60;36.10;;;;;;5104643;28;20050;-73
2023/07/21 09:17:11;;;;;;;47.58;45.35;;;23.20;34.00;;;;;;5104112;28;20108;-73
2023/07/21 09:19:41;;;;;;;43.60;41.55;;;23.60;35.70;;;;;;5089249;28;20020;-73
2023/07/21 09:22:08;;;;;;;97.03;93.38;;;23.80;38.20;;;;;;5086484;28;20030;-73
2023/07/21 09:24:35;;;;;;;146.88;141.43;;;23.80;34.70;;;;;;5106738;28;20104;-73
2023/07/21 09:27:18;;;;;;;130.80;125.90;;;24.20;35.00;;;;;;5105145;28;20516;-73
2023/07/21 09:29:44;;;;;;;128.35;123.55;;;24.30;35.00;;;;;;5102924;28;20040;-75
2023/07/21 09:32:14;;;;;;;108.72;104.63;;;24.10;33.70;;;;;;5087020;28;20039;-75
2023/07/21 09:34:57;;;;;;;140.88;135.35;;;24.40;36.50;;;;;;5108557;28;20015;-73
2023/07/21 09:37:33;;;;;;;167.10;160.73;;;24.40;34.40;;;;;;5091995;28;20549;-73
2023/07/21 09:40:01;;;;;;;587.20;334.05;;;24.60;36.60;;;;;;5107982;28;20027;-73
2023/07/21 09:42:29;;;;;;;152.15;146.60;;;24.70;26.80;;;;;;5110039;27;20120;-75
2023/07/21 09:44:56;;;;;;;117.00;112.72;;;24.50;32.30;;;;;;5105018;28;20066;-75
2023/07/21 09:47:23;;;;;;;172.77;165.65;;;25.00;30.00;;;;;;5106813;28;20108;-75
2023/07/21 09:49:53;;;;;;;134.60;129.75;;;24.80;28.60;;;;;;5092093;28;20028;-76
2023/07/21 09:52:20;;;;;;;218.95;211.23;;;25.20;30.20;;;;;;5111467;28;20126;-76
2023/07/21 09:55:14;;;;;;;243.35;234.90;;;25.50;29.40;;;;;;5110978;28;20047;-76
2023/07/21 09:57:49;;;;;;;215.35;207.45;;;25.60;28.40;;;;;;5111777;27;20121;-75
2023/07/21 10:00:17;;;;;;;204.98;197.63;;;25.30;27.90;;;;;;5090028;28;20016;-75
2023/07/21 10:02:48;;;;;;;230.50;222.02;;;25.60;31.70;;;;;;5089923;28;20036;-75
2023/07/21 10:05:14;;;;;;;227.40;219.13;;;25.80;31.70;;;;;;5108019;28;20036;-75
2023/07/21 10:07:46;;;;;;;1999.90;999.90;;;25.90;29.50;;;;;;5107604;28;20073;-75
2023/07/21 10:10:12;;;;;;;249.88;241.20;;;25.90;27.20;;;;;;5107241;28;20031;-75
2023/07/21 10:12:51;;;;;;;272.45;262.63;;;26.00;28.90;;;;;;5103929;28;20096;-75
2023/07/21 10:15:19;;;;;;;249.88;241.25;;;26.50;28.70;;;;;;5108395;28;20072;-75
2023/07/21 10:18:11;;;;;;;1999.90;999.90;;;26.30;28.70;;;;;;5092607;28;20805;-75
2023/07/21 10:20:37;;;;;;;148.75;143.15;;;26.40;29.70;;;;;;5102617;28;20060;-75
2023/07/21 10:23:04;;;;;;;218.13;209.77;;;26.50;31.40;;;;;;5106636;28;20020;-75
2023/07/21 10:26:07;;;;;;;207.32;199.98;;;26.80;28.90;;;;;;5109947;27;20031;-75
2023/07/21 10:28:42;;;;;;;159.93;154.02;;;26.80;33.50;;;;;;5099964;28;20036;-76
2023/07/21 10:31:24;;;;;;;285.75;275.50;;;27.90;30.00;;;;;;5102835;28;20020;-76
2023/07/21 10:34:07;;;;;;;288.13;277.67;;;28.10;29.70;;;;;;5107219;28;20027;-75
2023/07/21 10:36:53;;;;;;;1999.90;999.90;;;28.30;27.10;;;;;;5106929;28;20027;-75
2023/07/21 10:39:24;;;;;;;1999.90;999.90;;;27.70;27.90;;;;;;5108445;28;20800;-76
2023/07/21 10:42:01;;;;;;;298.42;286.33;;;26.90;26.30;;;;;;5105676;27;20066;-76
2023/07/21 10:44:39;;;;;;;1999.90;999.90;;;27.00;29.70;;;;;;5087042;28;20024;-75
2023/07/21 10:47:18;;;;;;;245.57;235.73;;;26.90;28.00;;;;;;5089441;28;20027;-76
2023/07/21 10:49:45;;;;;;;325.13;311.95;;;27.10;32.90;;;;;;5101384;28;20405;-76
2023/07/21 10:52:11;;;;;;;362.65;348.27;;;27.10;31.60;;;;;;5092124;28;20043;-75
2023/07/21 10:54:37;;;;;;;1999.90;999.90;;;26.80;28.60;;;;;;5109521;27;20172;-76
2023/07/21 10:57:03;;;;;;;1999.90;999.90;;;26.40;28.10;;;;;;5087501;28;20075;-75
2023/07/21 10:59:34;;;;;;;176.95;169.20;;;26.40;28.70;;;;;;5091362;28;20071;-76
2023/07/21 11:02:02;;;;;;;206.38;197.73;;;26.10;30.70;;;;;;5106187;28;20034;-75
2023/07/21 11:04:29;;;;;;;1999.90;999.90;;;25.60;31.00;;;;;;5109922;28;20031;-76
2023/07/21 11:06:57;;;;;;;362.23;347.08;;;25.00;30.60;;;;;;5094519;28;20031;-76
2023/07/21 11:09:23;;;;;;;343.02;329.20;;;24.90;32.80;;;;;;5090943;28;20031;-75
2023/07/21 11:11:52;;;;;;;286.13;274.73;;;24.80;35.30;;;;;;5106355;28;20028;-76
2023/07/21 11:14:26;;;;;;;229.55;219.05;;;24.30;33.00;;;;;;5107352;28;20044;-75
2023/07/21 11:17:00;;;;;;;311.63;298.42;;;24.30;30.80;;;;;;5108224;28;20023;-75
2023/07/21 11:19:27;;;;;;;334.67;321.60;;;24.40;32.70;;;;;;5105652;28;20077;-75
2023/07/21 11:21:53;;;;;;;282.13;272.13;;;24.30;36.70;;;;;;5091399;28;20023;-76
2023/07/21 11:24:25;;;;;;;164.68;158.65;;;23.80;36.20;;;;;;5103470;28;20327;-75
2023/07/21 11:26:54;;;;;;;162.30;156.40;;;23.60;39.00;;;;;;5089203;28;20040;-76
2023/07/21 11:29:20;;;;;;;147.65;142.40;;;23.10;39.30;;;;;;5105645;28;20493;-76
2023/07/21 11:31:46;;;;;;;132.85;127.97;;;23.00;39.00;;;;;;5108089;27;20042;-75
2023/07/21 11:34:31;;;;;;;129.70;123.85;;;22.60;41.80;;;;;;5106344;28;20081;-75
2023/07/21 11:36:59;;;;;;;74.53;30.30;;;22.50;51.00;;;;;;5106276;28;20043;-75
2023/07/21 11:39:27;;;;;;;18.83;17.15;;;20.50;76.70;;;;;;5089620;28;20733;-75
2023/07/21 11:41:54;;;;;;;17.13;15.52;;;19.50;83.30;;;;;;5103289;28;20791;-74
2023/07/21 11:44:31;;;;;;;19.25;17.95;;;18.90;78.70;;;;;;5102973;28;20094;-74
2023/07/21 11:47:09;;;;;;;20.52;19.13;;;18.60;84.90;;;;;;5085254;28;20032;-74
2023/07/21 11:49:45;;;;;;;19.35;17.90;;;18.50;88.50;;;;;;5106063;28;20032;-74
2023/07/21 11:52:24;;;;;;;23.52;22.17;;;19.00;91.10;;;;;;5105233;28;20031;-74
2023/07/21 11:54:50;;;;;;;37.67;35.03;;;18.80;91.30;;;;;;5090931;28;20781;-74
2023/07/21 11:57:18;;;;;;;31.60;29.83;;;19.40;93.20;;;;;;5103759;28;20051;-74
2023/07/21 11:59:44;;;;;;;33.42;31.80;;;19.90;91.80;;;;;;5087263;28;20035;-74
2023/07/21 12:02:12;;;;;;;34.78;32.75;;;21.10;94.10;;;;;;5101630;28;20485;-71
2023/07/21 12:04:38;;;;;;;41.53;39.35;;;20.80;90.20;;;;;;5103596;28;20071;-74
2023/07/21 12:07:04;;;;;;;41.45;39.33;;;21.20;94.30;;;;;;5104774;28;20078;-74
2023/07/21 12:09:31;;;;;;;25.27;23.95;;;21.20;92.90;;;;;;5104157;28;20024;-72
2023/07/21 12:11:58;;;;;;;21.88;20.25;;;20.60;88.70;;;;;;5104465;28;20024;-72
2023/07/21 12:14:24;;;;;;;21.33;19.80;;;20.30;88.20;;;;;;5104598;28;20044;-74
2023/07/21 12:16:53;;;;;;;17.80;16.27;;;20.50;92.30;;;;;;5101051;28;20077;-72
2023/07/21 12:19:19;;;;;;;18.55;17.25;;;20.10;86.90;;;;;;5100463;28;20028;-71
2023/07/21 12:21:45;;;;;;;16.55;15.35;;;19.70;85.90;;;;;;5101606;28;20340;-70
2023/07/21 12:24:11;;;;;;;17.83;16.58;;;19.70;85.80;;;;;;5101977;28;20040;-72
2023/07/21 12:26:37;;;;;;;16.67;15.35;;;19.40;89.30;;;;;;5101938;28;20086;-72